Time;durP1;ratioP1;P1;durP2;ratioP2;P2;SDS_P1;SDS_P2;PMS_P1;PMS_P2;Temp;Humidity;BMP_temperature;BMP_pressure;BME280_temperature;BME280_humidity;BME280_pressure;Samples;Min_cycle;Max_cycle;Signal;HPM_P1;HPM_P2
2022/05/29 00:00:55;;;;;;;2.20;1.02;;;;;15.50;101674.00;;;;5068301;28;20195;-80
2022/05/29 00:03:23;;;;;;;3.13;1.38;;;;;15.40;101670.00;;;;5088087;28;20230;-80
2022/05/29 00:05:50;;;;;;;3.15;1.00;;;;;15.40;101666.00;;;;5052735;28;20199;-80
2022/05/29 00:08:25;;;;;;;12.05;1.45;;;;;15.40;101672.00;;;;5054914;28;20207;-80
2022/05/29 00:10:54;;;;;;;1.83;0.70;;;;;15.30;101667.00;;;;5066431;28;20665;-80
2022/05/29 00:13:22;;;;;;;3.83;0.93;;;;;15.30;101669.00;;;;5067342;28;20210;-80
2022/05/29 00:15:49;;;;;;;2.25;1.20;;;;;15.30;101671.00;;;;5055683;28;20249;-80
2022/05/29 00:18:17;;;;;;;2.08;0.88;;;;;15.30;101665.00;;;;5049206;28;20200;-80
2022/05/29 00:20:48;;;;;;;2.15;1.00;;;;;15.20;101657.00;;;;5047944;28;20203;-80
2022/05/29 00:23:16;;;;;;;5.72;1.88;;;;;15.20;101655.00;;;;5048447;28;20223;-80
2022/05/29 00:25:46;;;;;;;2.25;0.98;;;;;15.10;101648.00;;;;5063402;28;20198;-80
2022/05/29 00:28:14;;;;;;;2.70;1.70;;;;;15.10;101645.00;;;;5068422;28;20191;-80
2022/05/29 00:30:42;;;;;;;3.67;2.38;;;;;15.10;101640.00;;;;5067133;28;20195;-79
2022/05/29 00:33:10;;;;;;;2.50;1.63;;;;;15.10;101645.00;;;;5068702;28;20195;-80
2022/05/29 00:35:39;;;;;;;3.55;1.55;;;;;15.10;101642.00;;;;5059809;28;20187;-80
2022/05/29 00:38:07;;;;;;;2.88;1.60;;;;;15.00;101644.00;;;;5058098;28;20205;-80
2022/05/29 00:40:40;;;;;;;3.00;1.30;;;;;15.00;101649.00;;;;5068383;28;20199;-81
2022/05/29 00:43:07;;;;;;;3.63;1.67;;;;;15.00;101639.00;;;;5066964;28;20217;-80
2022/05/29 00:45:46;;;;;;;3.95;1.70;;;;;14.90;101635.00;;;;5057803;28;20196;-80
2022/05/29 00:48:17;;;;;;;3.33;1.30;;;;;14.90;101642.00;;;;5059383;28;20213;-81
2022/05/29 00:50:45;;;;;;;2.22;1.48;;;;;14.90;101640.00;;;;5068593;28;20664;-81
2022/05/29 00:53:14;;;;;;;2.42;1.33;;;;;14.90;101626.00;;;;5068256;28;20199;-80
2022/05/29 00:55:43;;;;;;;2.95;1.10;;;;;14.90;101633.00;;;;5067100;28;20187;-81
2022/05/29 00:58:12;;;;;;;3.72;1.40;;;;;14.90;101635.00;;;;5048092;28;20207;-80
2022/05/29 01:00:42;;;;;;;2.25;1.27;;;;;14.90;101633.00;;;;5047349;28;20199;-81
2022/05/29 01:03:09;;;;;;;1.75;1.00;;;;;14.90;101629.00;;;;5056219;28;20215;-80
2022/05/29 01:05:37;;;;;;;2.75;1.10;;;;;14.90;101630.00;;;;5067970;28;20203;-81
2022/05/29 01:08:10;;;;;;;3.25;1.25;;;;;14.80;101617.00;;;;5062670;28;20199;-81
2022/05/29 01:10:52;;;;;;;2.05;1.23;;;;;14.80;101621.00;;;;5068491;28;20207;-80
2022/05/29 01:13:29;;;;;;;1.95;1.25;;;;;14.80;101614.00;;;;5066672;28;20740;-80
2022/05/29 01:16:05;;;;;;;3.25;1.17;;;;;14.80;101612.00;;;;5067961;28;20577;-80
2022/05/29 01:18:37;;;;;;;1.73;1.27;;;;;14.80;101612.00;;;;5068144;28;20282;-80
2022/05/29 01:21:22;;;;;;;5.85;1.42;;;;;14.70;101609.00;;;;5070167;28;20194;-81
2022/05/29 01:24:38;;;;;;;3.40;1.08;;;;;14.70;101606.00;;;;5070743;28;20233;-80
2022/05/29 01:27:35;;;;;;;2.38;0.95;;;;;14.70;101597.00;;;;5034270;28;20199;-80
2022/05/29 01:30:08;;;;;;;4.72;1.60;;;;;14.70;101604.00;;;;5069766;28;20210;-80
2022/05/29 01:32:42;;;;;;;2.72;1.33;;;;;14.70;101595.00;;;;5051444;28;20203;-80
2022/05/29 01:35:13;;;;;;;1.33;1.00;;;;;14.80;101596.00;;;;5057683;28;20191;-80
2022/05/29 01:37:50;;;;;;;2.53;1.30;;;;;14.70;101591.00;;;;5071027;28;20191;-80
2022/05/29 01:40:25;;;;;;;2.30;1.50;;;;;14.70;101585.00;;;;5071414;28;20194;-80
2022/05/29 01:42:57;;;;;;;1.77;1.23;;;;;14.80;101583.00;;;;5070450;28;20370;-80
2022/05/29 01:45:33;;;;;;;3.88;1.30;;;;;14.80;101590.00;;;;5071409;28;20226;-80
2022/05/29 01:48:08;;;;;;;5.47;1.25;;;;;14.80;101584.00;;;;5070932;28;20198;-80
2022/05/29 01:50:38;;;;;;;2.00;1.00;;;;;14.80;101586.00;;;;5064959;28;20717;-80
2022/05/29 01:53:13;;;;;;;3.83;1.30;;;;;14.80;101580.00;;;;5068985;28;20199;-81
2022/05/29 01:55:44;;;;;;;2.22;1.30;;;;;14.80;101589.00;;;;5070563;28;20218;-81
2022/05/29 01:58:17;;;;;;;1.98;1.40;;;;;14.90;101584.00;;;;5071165;28;20195;-80
2022/05/29 02:00:48;;;;;;;3.35;1.63;;;;;14.90;101587.00;;;;5063301;28;20241;-81
2022/05/29 02:03:20;;;;;;;2.10;1.33;;;;;14.90;101581.00;;;;5050913;28;20223;-81
2022/05/29 02:05:52;;;;;;;4.85;1.55;;;;;14.90;101579.00;;;;5061386;28;20226;-80
2022/05/29 02:08:24;;;;;;;2.42;1.15;;;;;15.00;101574.00;;;;5069297;28;20187;-80
2022/05/29 02:10:56;;;;;;;2.22;1.50;;;;;15.00;101577.00;;;;5058119;28;20287;-81
2022/05/29 02:13:28;;;;;;;1.63;1.20;;;;;15.00;101575.00;;;;5054812;28;20207;-81
2022/05/29 02:16:02;;;;;;;2.72;1.40;;;;;15.00;101569.00;;;;5051444;28;20211;-81
2022/05/29 02:18:36;;;;;;;2.95;1.45;;;;;15.00;101567.00;;;;5052215;28;20202;-81
2022/05/29 02:21:13;;;;;;;3.30;1.80;;;;;15.00;101561.00;;;;5050938;28;20249;-81
2022/05/29 02:23:45;;;;;;;2.80;1.40;;;;;15.10;101563.00;;;;5050820;28;20203;-81
2022/05/29 02:26:18;;;;;;;3.70;1.40;;;;;15.10;101565.00;;;;5064070;28;20194;-81
2022/05/29 02:28:50;;;;;;;3.55;1.42;;;;;15.10;101562.00;;;;5070734;28;20229;-81
2022/05/29 02:31:26;;;;;;;4.10;1.40;;;;;15.10;101574.00;;;;5069385;28;20211;-81
2022/05/29 02:34:00;;;;;;;2.25;1.38;;;;;15.20;101587.00;;;;5070837;28;20205;-82
2022/05/29 02:36:36;;;;;;;3.35;1.35;;;;;15.20;101574.00;;;;5078807;28;20194;-82
2022/05/29 02:39:23;;;;;;;3.65;1.90;;;;;15.10;101571.00;;;;5060073;28;20196;-81
2022/05/29 02:42:03;;;;;;;3.17;1.60;;;;;15.20;101566.00;;;;5050615;28;20278;-82
2022/05/29 02:44:39;;;;;;;3.38;1.58;;;;;15.20;101565.00;;;;5053593;28;20309;-81
2022/05/29 02:47:23;;;;;;;2.90;1.73;;;;;15.20;101562.00;;;;5070624;28;20195;-81
2022/05/29 02:50:02;;;;;;;2.35;1.27;;;;;15.20;101555.00;;;;5070087;28;20211;-80
2022/05/29 02:52:30;;;;;;;4.47;1.83;;;;;15.20;101551.00;;;;5070781;28;20206;-81
2022/05/29 02:54:58;;;;;;;1.88;1.33;;;;;15.20;101546.00;;;;5069176;28;20203;-81
2022/05/29 02:57:25;;;;;;;2.45;1.40;;;;;15.30;101535.00;;;;5050413;28;20199;-81
2022/05/29 02:59:57;;;;;;;3.45;1.58;;;;;15.20;101536.00;;;;5050749;28;20903;-81
2022/05/29 03:02:37;;;;;;;4.70;1.30;;;;;15.20;101528.00;;;;5050066;28;20203;-81
2022/05/29 03:05:14;;;;;;;3.40;1.67;;;;;15.30;101531.00;;;;5069204;28;20235;-81
2022/05/29 03:07:51;;;;;;;1.83;1.52;;;;;15.30;101530.00;;;;5070632;28;20798;-81
2022/05/29 03:10:21;;;;;;;2.10;1.35;;;;;15.40;101535.00;;;;5070487;28;20190;-81
2022/05/29 03:13:00;;;;;;;5.05;1.77;;;;;15.40;101542.00;;;;5070964;28;20192;-81
2022/05/29 03:15:35;;;;;;;2.65;1.20;;;;;15.40;101543.00;;;;5063573;28;20200;-81
2022/05/29 03:18:26;;;;;;;2.38;1.27;;;;;15.30;101538.00;;;;5050089;28;20191;-81
2022/05/29 03:21:01;;;;;;;5.70;2.30;;;;;15.40;101552.00;;;;5058953;28;20203;-81
2022/05/29 03:23:40;;;;;;;3.35;1.50;;;;;15.40;101549.00;;;;5065572;28;20194;-81
2022/05/29 03:26:13;;;;;;;1.20;1.05;;;;;15.40;101546.00;;;;5085037;28;20237;-80
2022/05/29 03:28:44;;;;;;;3.92;1.75;;;;;15.50;101540.00;;;;5071008;28;21129;-81
2022/05/29 03:31:16;;;;;;;5.28;1.73;;;;;15.50;101542.00;;;;5069983;28;20195;-80
2022/05/29 03:33:47;;;;;;;2.47;1.30;;;;;15.50;101539.00;;;;5068404;28;20673;-80
2022/05/29 03:36:16;;;;;;;4.47;2.15;;;;;15.50;101536.00;;;;5063560;28;20207;-80
2022/05/29 03:38:43;;;;;;;2.28;1.25;;;;;15.50;101531.00;;;;5055705;28;20472;-80
2022/05/29 03:41:14;;;;;;;6.45;1.30;;;;;15.50;101528.00;;;;5063640;28;20215;-80
2022/05/29 03:43:42;;;;;;;2.75;1.13;;;;;15.50;101532.00;;;;5068938;28;20215;-80
2022/05/29 03:46:09;;;;;;;1.88;1.25;;;;;15.50;101529.00;;;;5069383;28;20227;-79
2022/05/29 03:48:36;;;;;;;2.50;1.20;;;;;15.50;101525.00;;;;5060069;28;20195;-80
2022/05/29 03:51:06;;;;;;;2.20;1.27;;;;;15.50;101525.00;;;;5048298;28;20223;-80
2022/05/29 03:53:33;;;;;;;3.80;1.15;;;;;15.60;101520.00;;;;5065154;28;20199;-80
2022/05/29 03:56:01;;;;;;;4.50;1.48;;;;;15.60;101520.00;;;;5066894;28;20210;-80
2022/05/29 03:58:28;;;;;;;3.53;1.48;;;;;15.60;101516.00;;;;5068991;28;20198;-80
2022/05/29 04:00:55;;;;;;;5.05;1.60;;;;;15.60;101520.00;;;;5067114;28;20203;-80
2022/05/29 04:03:23;;;;;;;4.07;1.30;;;;;15.60;101515.00;;;;5068863;28;20218;-81
2022/05/29 04:05:51;;;;;;;2.25;1.20;;;;;15.70;101511.00;;;;5062790;28;20219;-81
2022/05/29 04:13:50;;;;;;;4.75;1.67;;;;;15.70;101503.00;;;;5068304;28;20237;-81
2022/05/29 04:16:17;;;;;;;3.30;1.23;;;;;15.80;101503.00;;;;5067078;28;20198;-81
2022/05/29 04:18:45;;;;;;;2.65;1.25;;;;;15.80;101502.00;;;;5059328;28;20203;-80
2022/05/29 04:21:15;;;;;;;1.75;1.25;;;;;15.80;101494.00;;;;5048845;28;20192;-81
2022/05/29 04:23:43;;;;;;;1.75;1.05;;;;;15.80;101498.00;;;;5048263;28;20204;-80
2022/05/29 04:26:14;;;;;;;1.98;1.38;;;;;15.80;101497.00;;;;5054587;28;20234;-80
2022/05/29 04:28:41;;;;;;;3.63;1.55;;;;;15.90;101495.00;;;;5067146;28;21009;-81
2022/05/29 04:31:08;;;;;;;3.42;1.45;;;;;15.90;101491.00;;;;5068815;28;20198;-81
2022/05/29 04:33:37;;;;;;;3.13;1.90;;;;;15.90;101494.00;;;;5052619;28;20192;-81
2022/05/29 04:36:05;;;;;;;3.25;1.33;;;;;16.00;101495.00;;;;5055349;28;20210;-80
2022/05/29 04:38:32;;;;;;;2.65;1.45;;;;;16.00;101492.00;;;;5068294;28;20202;-80
2022/05/29 04:41:07;;;;;;;2.33;1.52;;;;;16.00;101493.00;;;;5065162;28;20238;-81
2022/05/29 04:43:34;;;;;;;3.53;1.40;;;;;16.10;101492.00;;;;5068887;28;20190;-81
2022/05/29 04:46:02;;;;;;;3.38;1.48;;;;;16.10;101490.00;;;;5067937;28;20230;-81
2022/05/29 04:48:30;;;;;;;2.40;1.23;;;;;16.10;101491.00;;;;5068374;28;20203;-81
2022/05/29 04:50:58;;;;;;;3.97;1.80;;;;;16.10;101486.00;;;;5068236;28;20206;-81
2022/05/29 04:53:26;;;;;;;2.95;1.42;;;;;16.10;101493.00;;;;5066519;28;20653;-81
2022/05/29 04:55:56;;;;;;;2.42;1.40;;;;;16.20;101492.00;;;;5067487;28;20191;-81
2022/05/29 04:58:29;;;;;;;1.85;1.45;;;;;16.20;101490.00;;;;5068882;28;20206;-81
2022/05/29 05:00:57;;;;;;;4.00;1.65;;;;;16.20;101488.00;;;;5066119;28;20194;-81
2022/05/29 05:03:25;;;;;;;2.05;1.20;;;;;16.20;101491.00;;;;5067176;28;20230;-81
2022/05/29 05:05:52;;;;;;;2.65;1.58;;;;;16.30;101493.00;;;;5066837;28;20218;-81
2022/05/29 05:08:20;;;;;;;2.97;1.50;;;;;16.30;101489.00;;;;5056677;28;20199;-81
2022/05/29 05:10:48;;;;;;;2.53;1.30;;;;;16.30;101488.00;;;;5061258;28;20186;-81
2022/05/29 05:13:15;;;;;;;2.65;1.30;;;;;16.30;101487.00;;;;5068559;28;20188;-81
2022/05/29 05:15:44;;;;;;;1.77;1.33;;;;;16.40;101477.00;;;;5067846;28;20207;-81
2022/05/29 05:18:11;;;;;;;3.15;1.23;;;;;16.40;101475.00;;;;5067109;28;20187;-81
2022/05/29 05:20:39;;;;;;;2.85;1.50;;;;;16.40;101471.00;;;;5068248;28;20266;-81
2022/05/29 05:23:06;;;;;;;3.22;1.48;;;;;16.40;101473.00;;;;5055748;28;20196;-81
2022/05/29 05:25:34;;;;;;;1.90;1.27;;;;;16.50;101469.00;;;;5059591;28;20226;-81
2022/05/29 05:28:01;;;;;;;3.28;1.17;;;;;16.50;101469.00;;;;5047929;28;20199;-81
2022/05/29 05:30:28;;;;;;;1.75;1.40;;;;;16.50;101480.00;;;;5048335;28;20646;-81
2022/05/29 05:32:57;;;;;;;2.28;1.50;;;;;16.50;101479.00;;;;5048163;28;20192;-81
2022/05/29 05:35:24;;;;;;;2.25;1.02;;;;;16.60;101480.00;;;;5048056;28;20211;-81
2022/05/29 05:37:51;;;;;;;3.13;1.40;;;;;16.60;101472.00;;;;5060387;28;20321;-81
2022/05/29 05:40:19;;;;;;;2.40;1.25;;;;;16.60;101470.00;;;;5067922;28;20580;-80
2022/05/29 05:42:46;;;;;;;1.77;1.25;;;;;16.70;101474.00;;;;5067803;28;20227;-81
2022/05/29 05:45:14;;;;;;;3.28;1.75;;;;;16.70;101474.00;;;;5067398;28;20678;-81
2022/05/29 05:47:42;;;;;;;2.63;1.40;;;;;16.70;101465.00;;;;5067502;28;20218;-80
2022/05/29 05:50:12;;;;;;;1.40;1.08;;;;;16.70;101471.00;;;;5068097;28;20281;-81
2022/05/29 05:52:41;;;;;;;4.03;1.50;;;;;16.80;101462.00;;;;5059125;28;20197;-80
2022/05/29 05:55:11;;;;;;;2.90;1.67;;;;;16.80;101466.00;;;;5067930;28;20206;-81
2022/05/29 05:57:39;;;;;;;2.83;1.55;;;;;16.90;101475.00;;;;5067471;28;20289;-81
2022/05/29 06:00:09;;;;;;;1.65;1.25;;;;;16.90;101467.00;;;;5066971;28;20207;-81
2022/05/29 06:02:36;;;;;;;1.83;1.30;;;;;17.00;101469.00;;;;5068458;28;20218;-81
2022/05/29 06:05:04;;;;;;;2.83;1.05;;;;;17.00;101471.00;;;;5067172;28;20218;-81
2022/05/29 06:07:32;;;;;;;1.83;1.33;;;;;17.00;101476.00;;;;5067239;28;20199;-81
2022/05/29 06:09:59;;;;;;;1.38;1.10;;;;;17.00;101473.00;;;;5061536;28;21065;-81
2022/05/29 06:12:27;;;;;;;1.85;1.05;;;;;17.00;101481.00;;;;5061447;28;20199;-81
2022/05/29 06:14:54;;;;;;;3.72;1.35;;;;;17.10;101478.00;;;;5052175;28;20218;-80
2022/05/29 06:17:22;;;;;;;6.43;1.23;;;;;17.20;101469.00;;;;5052125;28;20294;-81
2022/05/29 06:19:49;;;;;;;2.85;1.70;;;;;17.20;101467.00;;;;5051747;28;20215;-81
2022/05/29 06:22:16;;;;;;;1.42;0.93;;;;;17.30;101471.00;;;;5056667;28;20198;-81
2022/05/29 06:24:46;;;;;;;4.40;1.25;;;;;17.40;101465.00;;;;5058649;28;20778;-81
2022/05/29 06:27:13;;;;;;;2.13;1.13;;;;;17.50;101472.00;;;;5070733;28;20227;-81
2022/05/29 06:29:40;;;;;;;1.30;0.95;;;;;17.50;101473.00;;;;5070898;28;20622;-82
2022/05/29 06:32:12;;;;;;;1.52;0.75;;;;;17.60;101468.00;;;;5071055;28;20202;-81
2022/05/29 06:34:39;;;;;;;3.17;0.93;;;;;17.70;101475.00;;;;5069973;28;20653;-82
2022/05/29 06:37:07;;;;;;;2.28;1.10;;;;;17.70;101474.00;;;;5065924;28;20206;-81
2022/05/29 06:39:36;;;;;;;4.03;1.45;;;;;17.80;101470.00;;;;5063187;28;20192;-81
2022/05/29 06:42:06;;;;;;;4.03;1.05;;;;;17.80;101479.00;;;;5058312;28;20226;-81
2022/05/29 06:44:34;;;;;;;2.22;0.77;;;;;17.90;101473.00;;;;5070282;28;20584;-82
2022/05/29 06:47:06;;;;;;;2.15;0.88;;;;;17.90;101480.00;;;;5069016;28;20625;-81
2022/05/29 06:49:33;;;;;;;2.47;0.77;;;;;18.00;101476.00;;;;5065058;28;20200;-82
2022/05/29 06:52:01;;;;;;;3.60;1.30;;;;;18.00;101476.00;;;;5050530;28;20538;-82
2022/05/29 06:54:28;;;;;;;3.08;1.17;;;;;18.10;101473.00;;;;5051117;28;20211;-82
2022/05/29 06:56:55;;;;;;;3.40;1.40;;;;;18.10;101462.00;;;;5051173;28;20207;-81
2022/05/29 06:59:24;;;;;;;3.88;1.30;;;;;18.20;101462.00;;;;5051446;28;20697;-82
2022/05/29 07:07:22;;;;;;;3.05;0.73;;;;;18.30;101471.00;;;;5050305;28;20740;-82
2022/05/29 07:09:50;;;;;;;1.33;0.70;;;;;18.40;101466.00;;;;5060539;28;20199;-82
2022/05/29 07:12:22;;;;;;;4.05;1.40;;;;;18.40;101466.00;;;;5057163;28;20199;-82
2022/05/29 07:14:54;;;;;;;2.30;1.05;;;;;18.50;101453.00;;;;5066363;28;20187;-82
2022/05/29 07:17:23;;;;;;;4.50;0.98;;;;;18.70;101456.00;;;;5067748;28;20203;-81
2022/05/29 07:19:51;;;;;;;4.07;1.00;;;;;18.80;101467.00;;;;5069930;28;20214;-81
2022/05/29 07:22:18;;;;;;;3.47;1.40;;;;;18.90;101460.00;;;;5071573;28;20568;-82
2022/05/29 07:24:45;;;;;;;3.40;0.95;;;;;18.90;101471.00;;;;5061624;28;20569;-85
2022/05/29 07:27:13;;;;;;;1.88;0.77;;;;;19.00;101471.00;;;;5056609;28;20230;-83
2022/05/29 07:29:40;;;;;;;2.65;0.60;;;;;19.00;101462.00;;;;5050154;28;20685;-82
2022/05/29 07:32:10;;;;;;;3.22;0.57;;;;;19.00;101465.00;;;;5050120;28;20210;-85
2022/05/29 07:34:37;;;;;;;2.47;0.90;;;;;19.00;101467.00;;;;5065575;28;20198;-82
2022/05/29 07:37:06;;;;;;;1.73;0.60;;;;;19.10;101467.00;;;;5069699;28;20293;-82
2022/05/29 07:39:38;;;;;;;1.30;0.70;;;;;19.10;101456.00;;;;5056541;28;20218;-83
2022/05/29 07:44:51;;;;;;;2.22;1.27;;;;;19.20;101461.00;;;;5050945;28;20257;-82
2022/05/29 07:47:20;;;;;;;0.60;0.47;;;;;19.20;101462.00;;;;5049943;28;20231;-82
2022/05/29 07:49:48;;;;;;;1.33;0.60;;;;;19.20;101450.00;;;;5049666;28;20202;-84
2022/05/29 07:52:15;;;;;;;2.47;0.77;;;;;19.30;101453.00;;;;5052864;28;20213;-83
2022/05/29 07:54:42;;;;;;;1.48;0.55;;;;;19.40;101453.00;;;;5058884;28;20205;-83
2022/05/29 07:57:09;;;;;;;2.30;0.68;;;;;19.40;101457.00;;;;5055267;28;20195;-83
2022/05/29 07:59:37;;;;;;;3.15;0.65;;;;;19.50;101455.00;;;;5062613;28;20202;-82
2022/05/29 08:02:04;;;;;;;1.95;0.70;;;;;19.60;101443.00;;;;5050047;28;20298;-82
2022/05/29 08:04:33;;;;;;;1.02;0.60;;;;;19.60;101446.00;;;;5049408;28;20215;-82
2022/05/29 08:07:00;;;;;;;1.98;0.65;;;;;19.60;101441.00;;;;5049098;28;20231;-83
2022/05/29 08:09:27;;;;;;;2.65;0.50;;;;;19.70;101444.00;;;;5059573;28;20233;-82
2022/05/29 08:11:54;;;;;;;2.92;0.60;;;;;19.80;101431.00;;;;5069250;28;20213;-82
2022/05/29 08:14:22;;;;;;;3.15;0.85;;;;;19.90;101442.00;;;;5068411;28;20203;-83
2022/05/29 08:16:49;;;;;;;1.65;0.50;;;;;20.00;101434.00;;;;5049238;28;20202;-83
2022/05/29 08:19:16;;;;;;;1.95;0.57;;;;;20.10;101444.00;;;;5049642;28;20199;-81
2022/05/29 08:21:48;;;;;;;2.00;0.50;;;;;20.10;101440.00;;;;5048953;28;20199;-82
2022/05/29 08:32:29;;;;;;;1.42;0.40;;;;;20.50;101445.00;;;;5049148;28;20206;-81
2022/05/29 08:34:56;;;;;;;1.67;0.40;;;;;20.60;101434.00;;;;5048565;28;20195;-81
2022/05/29 08:37:25;;;;;;;2.15;0.60;;;;;20.70;101443.00;;;;5048819;28;20211;-82
2022/05/29 08:39:52;;;;;;;1.45;0.80;;;;;20.80;101441.00;;;;5065555;28;20199;-83
2022/05/29 08:42:20;;;;;;;1.75;0.75;;;;;20.90;101438.00;;;;5058874;28;20231;-82
2022/05/29 08:44:49;;;;;;;2.95;0.60;;;;;21.00;101441.00;;;;5064697;28;20726;-85
2022/05/29 08:47:21;;;;;;;1.60;0.45;;;;;21.00;101442.00;;;;5068841;28;20226;-83
2022/05/29 08:49:49;;;;;;;2.08;0.63;;;;;21.00;101441.00;;;;5068266;28;20744;-83
2022/05/29 08:52:45;;;;;;;1.17;0.50;;;;;20.90;101441.00;;;;5050343;28;20207;-83
2022/05/29 08:55:16;;;;;;;2.47;0.63;;;;;20.90;101438.00;;;;5050834;28;20187;-82
2022/05/29 08:58:00;;;;;;;2.92;0.90;;;;;20.80;101450.00;;;;5053323;28;20199;-82
2022/05/29 09:00:38;;;;;;;2.80;0.68;;;;;20.80;101445.00;;;;5049014;28;20191;-82
2022/05/29 09:03:23;;;;;;;0.93;0.40;;;;;20.80;101440.00;;;;5060438;28;20199;-82
2022/05/29 09:05:59;;;;;;;1.45;0.32;;;;;20.80;101437.00;;;;5067928;28;20581;-82
2022/05/29 09:08:32;;;;;;;1.45;0.40;;;;;20.80;101433.00;;;;5068173;28;20394;-82
2022/05/29 09:11:06;;;;;;;1.05;0.47;;;;;20.80;101448.00;;;;5048383;28;20207;-83
2022/05/29 09:13:37;;;;;;;1.70;0.38;;;;;20.70;101447.00;;;;5048550;28;20203;-83
2022/05/29 09:16:11;;;;;;;4.07;0.80;;;;;20.60;101457.00;;;;5052054;28;20589;-83
2022/05/29 09:18:42;;;;;;;1.27;0.30;;;;;20.60;101455.00;;;;5068786;28;20202;-83
2022/05/29 09:21:14;;;;;;;1.95;0.30;;;;;20.50;101452.00;;;;5065376;28;20241;-83
2022/05/29 09:23:52;;;;;;;0.45;0.22;;;;;20.40;101440.00;;;;5057067;28;20217;-82
2022/05/29 09:26:20;;;;;;;1.20;0.30;;;;;20.40;101446.00;;;;5049819;28;20219;-84
2022/05/29 09:28:48;;;;;;;0.63;0.32;;;;;20.30;101437.00;;;;5048225;28;20191;-82
2022/05/29 09:31:18;;;;;;;4.28;0.40;;;;;20.20;101440.00;;;;5048198;28;20195;-82
2022/05/29 09:33:45;;;;;;;1.40;0.10;;;;;20.20;101426.00;;;;5048021;28;20210;-82
2022/05/29 09:36:20;;;;;;;0.43;0.15;;;;;20.30;101433.00;;;;5068101;28;20296;-82
2022/05/29 09:38:53;;;;;;;0.63;0.35;;;;;20.40;101432.00;;;;5066582;28;20285;-82
2022/05/29 09:41:23;;;;;;;0.88;0.20;;;;;20.60;101426.00;;;;5068537;28;20218;-82
2022/05/29 09:44:12;;;;;;;2.13;0.35;;;;;20.60;101423.00;;;;5071514;28;20203;-81
2022/05/29 09:46:40;;;;;;;0.73;0.20;;;;;20.80;101426.00;;;;5052315;28;20223;-83
2022/05/29 09:52:05;;;;;;;1.02;0.10;;;;;20.90;101421.00;;;;5057033;28;20747;-84
2022/05/29 09:54:36;;;;;;;0.10;0.10;;;;;21.00;101419.00;;;;5053358;28;20238;-82
2022/05/29 09:57:09;;;;;;;0.30;0.10;;;;;21.00;101413.00;;;;5071772;28;20615;-82
2022/05/29 09:59:39;;;;;;;0.30;0.00;;;;;21.10;101423.00;;;;5072363;28;20581;-81
2022/05/29 10:02:12;;;;;;;1.90;0.35;;;;;21.20;101441.00;;;;5071171;28;20276;-81
2022/05/29 10:04:41;;;;;;;0.93;0.20;;;;;21.10;101442.00;;;;5070984;28;20215;-81
2022/05/29 10:07:16;;;;;;;1.73;0.68;;;;;20.90;101428.00;;;;5071103;28;20276;-82
2022/05/29 10:10:00;;;;;;;1.08;0.30;;;;;20.80;101430.00;;;;5071464;28;20234;-82
2022/05/29 10:12:42;;;;;;;1.65;0.40;;;;;20.80;101426.00;;;;5071842;28;20206;-82
2022/05/29 10:15:34;;;;;;;1.33;0.43;;;;;20.70;101426.00;;;;5053362;28;20218;-82
2022/05/29 10:18:05;;;;;;;1.48;0.50;;;;;20.80;101430.00;;;;5050969;28;20670;-82
2022/05/29 10:20:34;;;;;;;0.68;0.40;;;;;20.80;101418.00;;;;5051707;28;20600;-81
2022/05/29 10:23:05;;;;;;;2.25;0.52;;;;;20.80;101418.00;;;;5052594;28;20631;-81
2022/05/29 10:25:35;;;;;;;2.53;0.43;;;;;20.90;101420.00;;;;5065375;28;20590;-82
2022/05/29 10:28:09;;;;;;;1.90;0.32;;;;;20.90;101416.00;;;;5071201;28;20248;-82
2022/05/29 10:30:45;;;;;;;0.75;0.30;;;;;20.90;101411.00;;;;5071143;28;20281;-84
2022/05/29 10:33:15;;;;;;;1.33;0.30;;;;;21.00;101416.00;;;;5061324;28;20195;-82
2022/05/29 10:35:43;;;;;;;0.77;0.40;;;;;21.10;101416.00;;;;5051018;28;20203;-83
2022/05/29 10:38:26;;;;;;;1.10;0.30;;;;;21.00;101412.00;;;;5054089;28;20230;-82
2022/05/29 10:40:57;;;;;;;1.33;0.40;;;;;21.00;101416.00;;;;5050738;28;20200;-83
2022/05/29 10:43:39;;;;;;;0.60;0.30;;;;;20.90;101411.00;;;;5063696;28;20213;-84
2022/05/29 10:46:13;;;;;;;1.05;0.30;;;;;20.90;101411.00;;;;5067265;28;20191;-82
2022/05/29 10:49:03;;;;;;;1.15;0.35;;;;;20.80;101421.00;;;;5062726;28;20191;-81
2022/05/29 10:51:42;;;;;;;0.43;0.25;;;;;20.70;101417.00;;;;5064006;28;20649;-82
2022/05/29 10:54:21;;;;;;;5.05;0.52;;;;;20.70;101429.00;;;;5050099;28;20191;-81
2022/05/29 10:57:12;;;;;;;1.52;0.25;;;;;20.50;101429.00;;;;5050761;28;20195;-82
2022/05/29 11:00:07;;;;;;;1.05;0.40;;;;;20.50;101427.00;;;;5057812;28;20194;-82
2022/05/29 11:06:05;;;;;;;2.17;0.50;;;;;20.30;101430.00;;;;5068690;28;20691;-81
2022/05/29 11:08:41;;;;;;;2.13;0.40;;;;;20.30;101422.00;;;;5070907;28;20226;-81
2022/05/29 11:11:21;;;;;;;0.98;0.30;;;;;20.20;101425.00;;;;5057732;28;20203;-81
2022/05/29 11:14:05;;;;;;;1.95;0.82;;;;;20.20;101422.00;;;;5054883;28;20191;-81
2022/05/29 11:16:47;;;;;;;3.05;0.40;;;;;20.20;101419.00;;;;5057248;28;20203;-82
2022/05/29 11:19:52;;;;;;;1.33;0.40;;;;;20.20;101416.00;;;;5070771;28;20289;-80
2022/05/29 11:22:26;;;;;;;2.65;0.40;;;;;20.30;101411.00;;;;5058234;28;20202;-82
2022/05/29 11:25:06;;;;;;;3.47;0.47;;;;;20.30;101418.00;;;;5049396;28;20203;-82
2022/05/29 11:27:59;;;;;;;3.88;0.63;;;;;20.20;101414.00;;;;5063237;28;20233;-81
2022/05/29 11:30:35;;;;;;;3.80;0.52;;;;;20.30;101413.00;;;;5070552;28;20195;-81
2022/05/29 11:33:18;;;;;;;2.13;0.65;;;;;20.20;101407.00;;;;5069729;28;20568;-83
2022/05/29 11:36:06;;;;;;;1.83;0.38;;;;;20.20;101407.00;;;;5070309;28;20194;-82
2022/05/29 11:38:52;;;;;;;1.20;0.30;;;;;20.20;101406.00;;;;5070578;28;20252;-81
2022/05/29 11:41:25;;;;;;;1.20;0.40;;;;;20.30;101397.00;;;;5068979;28;20712;-81
2022/05/29 11:43:58;;;;;;;2.22;0.30;;;;;20.30;101386.00;;;;5069116;28;20187;-82
2022/05/29 11:52:24;;;;;;;0.77;0.50;;;;;20.30;101392.00;;;;5072712;28;20245;-83
2022/05/29 11:54:58;;;;;;;0.50;0.20;;;;;20.30;101387.00;;;;5069327;28;20210;-81
2022/05/29 11:57:32;;;;;;;1.00;0.40;;;;;20.20;101393.00;;;;5069496;28;20207;-82
2022/05/29 12:00:07;;;;;;;0.47;0.28;;;;;20.30;101387.00;;;;5068323;28;20198;-82
2022/05/29 12:02:46;;;;;;;0.68;0.32;;;;;20.20;101384.00;;;;5069650;28;20652;-82
2022/05/29 12:05:23;;;;;;;1.40;0.40;;;;;20.30;101376.00;;;;5061648;28;20302;-82
2022/05/29 12:07:58;;;;;;;0.80;0.32;;;;;20.30;101382.00;;;;5057843;28;20263;-82
2022/05/29 12:10:28;;;;;;;2.03;0.32;;;;;20.40;101380.00;;;;5065470;28;20202;-81
2022/05/29 12:13:02;;;;;;;2.30;0.30;;;;;20.40;101372.00;;;;5048868;28;20200;-82
2022/05/29 12:15:31;;;;;;;0.80;0.25;;;;;20.40;101372.00;;;;5059361;28;20188;-82
2022/05/29 12:18:04;;;;;;;1.15;0.20;;;;;20.40;101371.00;;;;5050276;28;20284;-83
2022/05/29 12:20:40;;;;;;;1.00;0.20;;;;;20.40;101373.00;;;;5069284;28;20199;-82
2022/05/29 12:23:13;;;;;;;1.35;0.47;;;;;20.40;101371.00;;;;5050570;28;20256;-81
2022/05/29 12:25:46;;;;;;;3.78;0.60;;;;;20.40;101369.00;;;;5059113;28;20196;-80
2022/05/29 12:28:22;;;;;;;1.38;0.20;;;;;20.40;101377.00;;;;5061838;28;20214;-82
2022/05/29 12:30:50;;;;;;;0.70;0.35;;;;;20.40;101373.00;;;;5060924;28;20198;-79
2022/05/29 12:33:23;;;;;;;0.98;0.30;;;;;20.40;101374.00;;;;5069930;28;20227;-80
2022/05/29 12:36:04;;;;;;;2.03;0.40;;;;;20.30;101376.00;;;;5065859;28;20379;-80
2022/05/29 12:39:00;;;;;;;1.23;0.50;;;;;20.30;101367.00;;;;5055231;28;20203;-79
2022/05/29 12:41:54;;;;;;;0.22;0.13;;;;;20.40;101372.00;;;;5062299;28;20223;-79
2022/05/29 12:44:51;;;;;;;0.63;0.20;;;;;20.40;101369.00;;;;5047295;28;20290;-79
2022/05/29 12:47:53;;;;;;;2.33;0.50;;;;;20.50;101369.00;;;;5057974;28;20735;-79
2022/05/29 12:50:40;;;;;;;0.98;0.20;;;;;20.50;101365.00;;;;5064386;28;20202;-79
2022/05/29 12:53:26;;;;;;;0.90;0.40;;;;;20.60;101358.00;;;;5066549;28;20199;-81
2022/05/29 12:56:14;;;;;;;1.15;0.38;;;;;20.60;101358.00;;;;5060389;28;20927;-82
2022/05/29 12:59:08;;;;;;;2.28;0.30;;;;;20.70;101372.00;;;;5058600;28;20191;-81
2022/05/29 13:02:01;;;;;;;1.38;0.30;;;;;20.70;101365.00;;;;5062790;28;20199;-81
2022/05/29 13:05:21;;;;;;;2.75;0.60;;;;;20.70;101364.00;;;;5069357;28;20217;-83
2022/05/29 13:08:30;;;;;;;1.60;0.38;;;;;20.70;101365.00;;;;4986730;28;20221;-83
2022/05/29 13:10:59;;;;;;;1.27;0.60;;;;;20.90;101362.00;;;;4978801;28;20202;-83